Steyregg, Austria
Current Conditions -  °F | °C
As of 10:20 AM on Thursday 29 Jan 2015 (Local Time) from LOWL Reporting Station
Broken Clouds Broken Clouds  
Wind Chill: 27°   Ceiling: 7000
Heat Index: 34°   Visibility: 6mi
Dew Point: 32°   Wind: 8mph
Humidity: 93%   Direction: 270°W
Pressure: 29.53"   Gusts: NA
Location:  48.29°N, 14.39°E
Report Text: LOWL 290820Z 27007KT 9999 FEW008 SCT013 BKN070 01/M00 Q1000 R08/29//95 NOSIG
Loading
Personal Weather Stations






























Interactive Weather Map New forecast layout! Learn more

10-Day Weather Forecast

Advertisements
Track Severe Weather on mobile